sensor_id;sensor_type;location;lat;lon;timestamp;temperature;humidity
4366;DHT22;2196;47.422;9.656;2023-01-19T00:01:17;0.30;99.90
4366;DHT22;2196;47.422;9.656;2023-01-19T00:03:46;0.20;99.90
4366;DHT22;2196;47.422;9.656;2023-01-19T00:06:13;0.20;99.90
4366;DHT22;2196;47.422;9.656;2023-01-19T00:08:40;0.20;99.90
4366;DHT22;2196;47.422;9.656;2023-01-19T00:11:09;0.20;99.90
4366;DHT22;2196;47.422;9.656;2023-01-19T00:13:37;0.20;99.90
4366;DHT22;2196;47.422;9.656;2023-01-19T00:16:04;0.20;99.90
4366;DHT22;2196;47.422;9.656;2023-01-19T00:18:32;0.20;99.90
4366;DHT22;2196;47.422;9.656;2023-01-19T00:21:00;0.20;99.90
4366;DHT22;2196;47.422;9.656;2023-01-19T00:23:27;0.20;99.90
4366;DHT22;2196;47.422;9.656;2023-01-19T00:25:56;0.20;99.90
4366;DHT22;2196;47.422;9.656;2023-01-19T00:28:24;0.20;99.90
4366;DHT22;2196;47.422;9.656;2023-01-19T00:30:51;0.20;99.90
4366;DHT22;2196;47.422;9.656;2023-01-19T00:33:18;0.20;99.90
4366;DHT22;2196;47.422;9.656;2023-01-19T00:35:50;0.30;99.90
4366;DHT22;2196;47.422;9.656;2023-01-19T00:38:18;0.30;99.90
4366;DHT22;2196;47.422;9.656;2023-01-19T00:40:45;0.20;99.90
4366;DHT22;2196;47.422;9.656;2023-01-19T00:43:12;0.20;99.90
4366;DHT22;2196;47.422;9.656;2023-01-19T00:45:39;0.20;99.90
4366;DHT22;2196;47.422;9.656;2023-01-19T00:48:07;0.20;99.90
4366;DHT22;2196;47.422;9.656;2023-01-19T00:50:34;0.20;99.90
4366;DHT22;2196;47.422;9.656;2023-01-19T00:53:02;0.20;99.90
4366;DHT22;2196;47.422;9.656;2023-01-19T00:55:31;0.20;99.90
4366;DHT22;2196;47.422;9.656;2023-01-19T00:57:58;0.20;99.90
4366;DHT22;2196;47.422;9.656;2023-01-19T01:00:25;0.20;99.90
4366;DHT22;2196;47.422;9.656;2023-01-19T01:02:53;0.20;99.90
4366;DHT22;2196;47.422;9.656;2023-01-19T01:05:20;0.30;99.90
4366;DHT22;2196;47.422;9.656;2023-01-19T01:07:48;0.30;99.90
4366;DHT22;2196;47.422;9.656;2023-01-19T01:10:18;0.30;99.90
4366;DHT22;2196;47.422;9.656;2023-01-19T01:12:47;0.30;99.90
4366;DHT22;2196;47.422;9.656;2023-01-19T01:15:15;0.30;99.90
4366;DHT22;2196;47.422;9.656;2023-01-19T01:17:43;0.30;99.90
4366;DHT22;2196;47.422;9.656;2023-01-19T01:20:14;0.30;99.90
4366;DHT22;2196;47.422;9.656;2023-01-19T01:22:43;0.30;99.90
4366;DHT22;2196;47.422;9.656;2023-01-19T01:25:11;0.30;99.90
4366;DHT22;2196;47.422;9.656;2023-01-19T01:27:38;0.30;99.90
4366;DHT22;2196;47.422;9.656;2023-01-19T01:30:09;0.30;99.90
4366;DHT22;2196;47.422;9.656;2023-01-19T01:32:37;0.30;99.90
4366;DHT22;2196;47.422;9.656;2023-01-19T01:35:05;0.30;99.90
4366;DHT22;2196;47.422;9.656;2023-01-19T01:37:33;0.30;99.90
4366;DHT22;2196;47.422;9.656;2023-01-19T01:40:01;0.40;99.90
4366;DHT22;2196;47.422;9.656;2023-01-19T01:42:29;0.30;99.90
4366;DHT22;2196;47.422;9.656;2023-01-19T01:44:58;0.30;99.90
4366;DHT22;2196;47.422;9.656;2023-01-19T01:47:31;0.40;99.90
4366;DHT22;2196;47.422;9.656;2023-01-19T01:50:06;0.40;99.90
4366;DHT22;2196;47.422;9.656;2023-01-19T01:52:35;0.30;99.90
4366;DHT22;2196;47.422;9.656;2023-01-19T01:55:04;0.30;99.90
4366;DHT22;2196;47.422;9.656;2023-01-19T01:57:35;0.20;99.90
4366;DHT22;2196;47.422;9.656;2023-01-19T02:00:04;0.30;99.90
4366;DHT22;2196;47.422;9.656;2023-01-19T02:02:35;0.20;99.90
4366;DHT22;2196;47.422;9.656;2023-01-19T02:05:20;0.20;99.90
4366;DHT22;2196;47.422;9.656;2023-01-19T02:07:51;0.30;99.90
4366;DHT22;2196;47.422;9.656;2023-01-19T02:10:37;0.30;99.90
4366;DHT22;2196;47.422;9.656;2023-01-19T02:13:22;0.20;99.90
4366;DHT22;2196;47.422;9.656;2023-01-19T02:15:52;0.30;99.90
4366;DHT22;2196;47.422;9.656;2023-01-19T02:18:23;0.20;99.90
4366;DHT22;2196;47.422;9.656;2023-01-19T02:20:58;0.20;99.90
4366;DHT22;2196;47.422;9.656;2023-01-19T02:23:38;0.20;99.90
4366;DHT22;2196;47.422;9.656;2023-01-19T02:26:07;0.20;99.90
4366;DHT22;2196;47.422;9.656;2023-01-19T02:28:38;0.20;99.90
4366;DHT22;2196;47.422;9.656;2023-01-19T02:31:07;0.20;99.90
4366;DHT22;2196;47.422;9.656;2023-01-19T02:33:35;0.30;99.90
4366;DHT22;2196;47.422;9.656;2023-01-19T02:36:03;0.30;99.90
4366;DHT22;2196;47.422;9.656;2023-01-19T02:38:31;0.30;99.90
4366;DHT22;2196;47.422;9.656;2023-01-19T02:41:00;0.30;99.90
4366;DHT22;2196;47.422;9.656;2023-01-19T02:43:29;0.30;99.90
4366;DHT22;2196;47.422;9.656;2023-01-19T02:45:57;0.40;99.90
4366;DHT22;2196;47.422;9.656;2023-01-19T02:48:24;0.50;99.90
4366;DHT22;2196;47.422;9.656;2023-01-19T02:50:52;0.50;99.90
4366;DHT22;2196;47.422;9.656;2023-01-19T02:53:37;0.50;99.90
4366;DHT22;2196;47.422;9.656;2023-01-19T02:56:23;0.50;99.90
4366;DHT22;2196;47.422;9.656;2023-01-19T02:58:57;0.50;99.90
4366;DHT22;2196;47.422;9.656;2023-01-19T03:01:34;0.50;99.90
4366;DHT22;2196;47.422;9.656;2023-01-19T03:04:12;0.40;99.90
4366;DHT22;2196;47.422;9.656;2023-01-19T03:06:44;0.40;99.90
4366;DHT22;2196;47.422;9.656;2023-01-19T03:09:19;0.40;99.90
4366;DHT22;2196;47.422;9.656;2023-01-19T03:11:55;0.20;99.90
4366;DHT22;2196;47.422;9.656;2023-01-19T03:14:29;0.20;99.90
4366;DHT22;2196;47.422;9.656;2023-01-19T03:17:01;0.20;99.90
4366;DHT22;2196;47.422;9.656;2023-01-19T03:19:33;0.20;99.90
4366;DHT22;2196;47.422;9.656;2023-01-19T03:22:06;0.20;99.90
4366;DHT22;2196;47.422;9.656;2023-01-19T03:24:40;0.10;99.90
4366;DHT22;2196;47.422;9.656;2023-01-19T03:29:42;-0.10;99.90
4366;DHT22;2196;47.422;9.656;2023-01-19T03:32:15;-0.10;99.90
4366;DHT22;2196;47.422;9.656;2023-01-19T03:34:43;-0.20;99.90
4366;DHT22;2196;47.422;9.656;2023-01-19T03:37:12;-0.20;99.90
4366;DHT22;2196;47.422;9.656;2023-01-19T03:39:43;-0.20;99.90
4366;DHT22;2196;47.422;9.656;2023-01-19T03:42:15;-0.20;99.90
4366;DHT22;2196;47.422;9.656;2023-01-19T03:44:44;-0.20;99.90
4366;DHT22;2196;47.422;9.656;2023-01-19T03:47:16;-0.10;99.90
4366;DHT22;2196;47.422;9.656;2023-01-19T03:49:45;-0.20;99.90
4366;DHT22;2196;47.422;9.656;2023-01-19T03:52:13;-0.20;99.90
4366;DHT22;2196;47.422;9.656;2023-01-19T03:54:41;-0.20;99.90
4366;DHT22;2196;47.422;9.656;2023-01-19T03:57:08;-0.20;99.90
4366;DHT22;2196;47.422;9.656;2023-01-19T03:59:38;-0.20;99.90
4366;DHT22;2196;47.422;9.656;2023-01-19T04:02:07;-0.20;99.90
4366;DHT22;2196;47.422;9.656;2023-01-19T04:04:34;-0.30;99.90
4366;DHT22;2196;47.422;9.656;2023-01-19T04:07:01;-0.20;99.90
4366;DHT22;2196;47.422;9.656;2023-01-19T04:09:28;-0.30;99.90
4366;DHT22;2196;47.422;9.656;2023-01-19T04:11:55;-0.20;99.90
4366;DHT22;2196;47.422;9.656;2023-01-19T04:14:22;-0.30;99.90
4366;DHT22;2196;47.422;9.656;2023-01-19T04:16:49;-0.40;99.90
4366;DHT22;2196;47.422;9.656;2023-01-19T04:19:18;-0.40;99.90
4366;DHT22;2196;47.422;9.656;2023-01-19T04:21:47;-0.40;99.90
4366;DHT22;2196;47.422;9.656;2023-01-19T04:24:14;-0.50;99.90
4366;DHT22;2196;47.422;9.656;2023-01-19T04:26:41;-0.40;99.90
4366;DHT22;2196;47.422;9.656;2023-01-19T04:29:08;-0.40;99.90
4366;DHT22;2196;47.422;9.656;2023-01-19T04:31:35;-0.40;99.90
4366;DHT22;2196;47.422;9.656;2023-01-19T04:34:02;-0.50;99.90
4366;DHT22;2196;47.422;9.656;2023-01-19T04:36:31;-0.50;99.90
4366;DHT22;2196;47.422;9.656;2023-01-19T04:38:58;-0.40;99.90
4366;DHT22;2196;47.422;9.656;2023-01-19T04:41:25;-0.30;99.90
4366;DHT22;2196;47.422;9.656;2023-01-19T04:43:52;-0.40;99.90
4366;DHT22;2196;47.422;9.656;2023-01-19T04:46:19;-0.40;99.90
4366;DHT22;2196;47.422;9.656;2023-01-19T04:48:46;-0.40;99.90
4366;DHT22;2196;47.422;9.656;2023-01-19T04:51:12;-0.40;99.90
4366;DHT22;2196;47.422;9.656;2023-01-19T04:53:41;-0.40;99.90
4366;DHT22;2196;47.422;9.656;2023-01-19T04:56:08;-0.40;99.90
4366;DHT22;2196;47.422;9.656;2023-01-19T04:58:35;-0.40;99.90
4366;DHT22;2196;47.422;9.656;2023-01-19T05:01:06;-0.40;99.90
4366;DHT22;2196;47.422;9.656;2023-01-19T05:03:33;-0.40;99.90
4366;DHT22;2196;47.422;9.656;2023-01-19T05:06:00;-0.40;99.90
4366;DHT22;2196;47.422;9.656;2023-01-19T05:08:27;-0.40;99.90
4366;DHT22;2196;47.422;9.656;2023-01-19T05:10:56;-0.40;99.90
4366;DHT22;2196;47.422;9.656;2023-01-19T05:13:23;-0.40;99.90
4366;DHT22;2196;47.422;9.656;2023-01-19T05:15:50;-0.40;99.90
4366;DHT22;2196;47.422;9.656;2023-01-19T05:18:17;-0.40;99.90
4366;DHT22;2196;47.422;9.656;2023-01-19T05:20:45;-0.30;99.90
4366;DHT22;2196;47.422;9.656;2023-01-19T05:23:12;-0.30;99.90
4366;DHT22;2196;47.422;9.656;2023-01-19T05:25:39;-0.40;99.90
4366;DHT22;2196;47.422;9.656;2023-01-19T05:28:07;-0.40;99.90
4366;DHT22;2196;47.422;9.656;2023-01-19T05:30:34;-0.40;99.90
4366;DHT22;2196;47.422;9.656;2023-01-19T05:33:03;-0.50;99.90
4366;DHT22;2196;47.422;9.656;2023-01-19T05:35:30;-0.50;99.90
4366;DHT22;2196;47.422;9.656;2023-01-19T05:37:57;-0.60;99.90
4366;DHT22;2196;47.422;9.656;2023-01-19T05:40:24;-0.60;99.90
4366;DHT22;2196;47.422;9.656;2023-01-19T05:42:51;-0.70;99.90
4366;DHT22;2196;47.422;9.656;2023-01-19T05:45:19;-0.70;99.90
4366;DHT22;2196;47.422;9.656;2023-01-19T05:47:46;-0.70;99.90
4366;DHT22;2196;47.422;9.656;2023-01-19T05:50:14;-0.70;99.90
4366;DHT22;2196;47.422;9.656;2023-01-19T05:52:41;-0.70;99.90
4366;DHT22;2196;47.422;9.656;2023-01-19T05:55:08;-0.70;99.90
4366;DHT22;2196;47.422;9.656;2023-01-19T05:57:35;-0.70;99.90
4366;DHT22;2196;47.422;9.656;2023-01-19T06:00:03;-0.70;99.90
4366;DHT22;2196;47.422;9.656;2023-01-19T06:02:32;-0.70;99.90
4366;DHT22;2196;47.422;9.656;2023-01-19T06:04:59;-0.70;99.90
4366;DHT22;2196;47.422;9.656;2023-01-19T06:07:26;-0.60;99.90
4366;DHT22;2196;47.422;9.656;2023-01-19T06:09:53;-0.60;99.90
4366;DHT22;2196;47.422;9.656;2023-01-19T06:12:20;-0.50;99.90
4366;DHT22;2196;47.422;9.656;2023-01-19T06:14:46;-0.50;99.90
4366;DHT22;2196;47.422;9.656;2023-01-19T06:17:14;-0.60;99.90
4366;DHT22;2196;47.422;9.656;2023-01-19T06:19:42;-0.60;99.90
4366;DHT22;2196;47.422;9.656;2023-01-19T06:22:09;-0.70;99.90
4366;DHT22;2196;47.422;9.656;2023-01-19T06:24:36;-0.70;99.90
4366;DHT22;2196;47.422;9.656;2023-01-19T06:27:03;-0.70;99.90
4366;DHT22;2196;47.422;9.656;2023-01-19T06:29:31;-0.80;99.90
4366;DHT22;2196;47.422;9.656;2023-01-19T06:31:58;-0.80;99.90
4366;DHT22;2196;47.422;9.656;2023-01-19T06:34:25;-0.90;99.90
4366;DHT22;2196;47.422;9.656;2023-01-19T06:36:55;-0.90;99.90
4366;DHT22;2196;47.422;9.656;2023-01-19T06:39:22;-0.90;99.90
4366;DHT22;2196;47.422;9.656;2023-01-19T06:41:50;-0.90;99.90
4366;DHT22;2196;47.422;9.656;2023-01-19T06:44:17;-1.00;99.90
4366;DHT22;2196;47.422;9.656;2023-01-19T06:46:44;-1.00;99.90
4366;DHT22;2196;47.422;9.656;2023-01-19T06:49:13;-0.90;99.90
4366;DHT22;2196;47.422;9.656;2023-01-19T06:51:40;-0.90;99.90
4366;DHT22;2196;47.422;9.656;2023-01-19T06:54:08;-0.90;99.90
4366;DHT22;2196;47.422;9.656;2023-01-19T06:56:35;-0.90;99.90
4366;DHT22;2196;47.422;9.656;2023-01-19T06:59:02;-1.00;99.90
4366;DHT22;2196;47.422;9.656;2023-01-19T07:01:30;-1.00;99.90
4366;DHT22;2196;47.422;9.656;2023-01-19T07:03:57;-1.00;99.90
4366;DHT22;2196;47.422;9.656;2023-01-19T07:06:25;-1.00;99.90
4366;DHT22;2196;47.422;9.656;2023-01-19T07:08:53;-1.00;99.90
4366;DHT22;2196;47.422;9.656;2023-01-19T07:11:21;-1.00;99.90
4366;DHT22;2196;47.422;9.656;2023-01-19T07:13:53;-1.00;99.90
4366;DHT22;2196;47.422;9.656;2023-01-19T07:16:20;-1.00;99.90
4366;DHT22;2196;47.422;9.656;2023-01-19T07:18:47;-0.80;99.90
4366;DHT22;2196;47.422;9.656;2023-01-19T07:21:16;-0.80;99.90
4366;DHT22;2196;47.422;9.656;2023-01-19T07:23:43;-0.80;99.90
4366;DHT22;2196;47.422;9.656;2023-01-19T07:26:10;-0.90;99.90
4366;DHT22;2196;47.422;9.656;2023-01-19T07:28:41;-1.00;99.90
4366;DHT22;2196;47.422;9.656;2023-01-19T07:31:08;-1.00;99.90
4366;DHT22;2196;47.422;9.656;2023-01-19T07:33:35;-1.00;99.90
4366;DHT22;2196;47.422;9.656;2023-01-19T07:36:03;-1.00;99.90
4366;DHT22;2196;47.422;9.656;2023-01-19T07:38:30;-0.90;99.90
4366;DHT22;2196;47.422;9.656;2023-01-19T07:41:00;-1.00;99.90
4366;DHT22;2196;47.422;9.656;2023-01-19T07:43:27;-1.00;99.90
4366;DHT22;2196;47.422;9.656;2023-01-19T07:45:57;-0.90;99.90
4366;DHT22;2196;47.422;9.656;2023-01-19T07:48:24;-0.90;99.90
4366;DHT22;2196;47.422;9.656;2023-01-19T07:50:51;-0.90;99.90
4366;DHT22;2196;47.422;9.656;2023-01-19T07:53:19;-0.80;99.90
4366;DHT22;2196;47.422;9.656;2023-01-19T07:55:53;-0.80;99.90
4366;DHT22;2196;47.422;9.656;2023-01-19T07:58:21;-0.80;99.90
4366;DHT22;2196;47.422;9.656;2023-01-19T08:00:48;-0.70;99.90
4366;DHT22;2196;47.422;9.656;2023-01-19T08:03:17;-0.60;99.90
4366;DHT22;2196;47.422;9.656;2023-01-19T08:05:44;-0.50;99.90
4366;DHT22;2196;47.422;9.656;2023-01-19T08:08:15;-0.40;99.90
4366;DHT22;2196;47.422;9.656;2023-01-19T08:10:42;-0.40;99.90
4366;DHT22;2196;47.422;9.656;2023-01-19T08:13:09;-0.20;99.90
4366;DHT22;2196;47.422;9.656;2023-01-19T08:15:36;-0.10;99.90
4366;DHT22;2196;47.422;9.656;2023-01-19T08:18:04;0.00;99.90
4366;DHT22;2196;47.422;9.656;2023-01-19T08:20:34;0.10;99.90
4366;DHT22;2196;47.422;9.656;2023-01-19T08:23:02;0.10;99.90
4366;DHT22;2196;47.422;9.656;2023-01-19T08:25:32;0.20;99.90
4366;DHT22;2196;47.422;9.656;2023-01-19T08:28:00;0.20;99.90
4366;DHT22;2196;47.422;9.656;2023-01-19T08:30:27;0.30;99.90
4366;DHT22;2196;47.422;9.656;2023-01-19T08:32:55;0.40;99.90
4366;DHT22;2196;47.422;9.656;2023-01-19T08:35:28;0.40;99.90
4366;DHT22;2196;47.422;9.656;2023-01-19T08:37:56;0.40;99.90
4366;DHT22;2196;47.422;9.656;2023-01-19T08:40:26;0.50;99.90
4366;DHT22;2196;47.422;9.656;2023-01-19T08:42:57;0.60;99.90
4366;DHT22;2196;47.422;9.656;2023-01-19T08:45:25;0.60;99.90
4366;DHT22;2196;47.422;9.656;2023-01-19T08:47:54;0.70;99.90
4366;DHT22;2196;47.422;9.656;2023-01-19T08:50:22;0.90;99.90
4366;DHT22;2196;47.422;9.656;2023-01-19T08:52:49;1.10;99.90
4366;DHT22;2196;47.422;9.656;2023-01-19T08:55:17;1.30;99.90
4366;DHT22;2196;47.422;9.656;2023-01-19T08:57:44;1.50;99.90
4366;DHT22;2196;47.422;9.656;2023-01-19T09:00:13;1.70;99.90
4366;DHT22;2196;47.422;9.656;2023-01-19T09:02:40;1.90;99.90
4366;DHT22;2196;47.422;9.656;2023-01-19T09:05:07;2.00;99.90
4366;DHT22;2196;47.422;9.656;2023-01-19T09:07:34;1.90;99.90
4366;DHT22;2196;47.422;9.656;2023-01-19T09:10:02;2.10;99.90
4366;DHT22;2196;47.422;9.656;2023-01-19T09:12:30;2.20;99.90
4366;DHT22;2196;47.422;9.656;2023-01-19T09:14:57;2.50;99.90
4366;DHT22;2196;47.422;9.656;2023-01-19T09:17:24;2.40;99.90
4366;DHT22;2196;47.422;9.656;2023-01-19T09:19:51;2.50;99.90
4366;DHT22;2196;47.422;9.656;2023-01-19T09:22:19;2.60;99.90
4366;DHT22;2196;47.422;9.656;2023-01-19T09:24:46;2.70;99.90
4366;DHT22;2196;47.422;9.656;2023-01-19T09:27:15;2.60;99.90
4366;DHT22;2196;47.422;9.656;2023-01-19T09:29:43;2.60;99.90
4366;DHT22;2196;47.422;9.656;2023-01-19T09:32:16;2.70;99.90
4366;DHT22;2196;47.422;9.656;2023-01-19T09:34:44;2.80;99.90
4366;DHT22;2196;47.422;9.656;2023-01-19T09:37:12;2.80;99.90
4366;DHT22;2196;47.422;9.656;2023-01-19T09:39:39;2.50;99.90
4366;DHT22;2196;47.422;9.656;2023-01-19T09:42:15;2.60;99.90
4366;DHT22;2196;47.422;9.656;2023-01-19T09:44:47;2.70;99.90
4366;DHT22;2196;47.422;9.656;2023-01-19T09:47:20;2.70;99.90
4366;DHT22;2196;47.422;9.656;2023-01-19T09:49:52;2.70;99.90
4366;DHT22;2196;47.422;9.656;2023-01-19T09:52:20;2.90;99.90
4366;DHT22;2196;47.422;9.656;2023-01-19T09:54:52;2.90;99.90
4366;DHT22;2196;47.422;9.656;2023-01-19T09:57:20;3.20;99.90
4366;DHT22;2196;47.422;9.656;2023-01-19T09:59:48;3.30;99.90
4366;DHT22;2196;47.422;9.656;2023-01-19T10:02:27;3.20;99.90
4366;DHT22;2196;47.422;9.656;2023-01-19T10:04:59;3.00;99.90
4366;DHT22;2196;47.422;9.656;2023-01-19T10:07:51;2.70;99.90
4366;DHT22;2196;47.422;9.656;2023-01-19T10:10:21;2.80;99.90
4366;DHT22;2196;47.422;9.656;2023-01-19T10:12:59;2.60;99.90
4366;DHT22;2196;47.422;9.656;2023-01-19T10:15:36;2.50;99.90
4366;DHT22;2196;47.422;9.656;2023-01-19T10:18:15;2.60;99.90
4366;DHT22;2196;47.422;9.656;2023-01-19T10:20:47;2.50;99.90
4366;DHT22;2196;47.422;9.656;2023-01-19T10:23:28;2.60;99.90
4366;DHT22;2196;47.422;9.656;2023-01-19T10:25:59;2.60;99.90
4366;DHT22;2196;47.422;9.656;2023-01-19T10:28:27;2.70;99.90
4366;DHT22;2196;47.422;9.656;2023-01-19T10:30:55;2.70;99.90
4366;DHT22;2196;47.422;9.656;2023-01-19T10:33:22;2.70;99.90
4366;DHT22;2196;47.422;9.656;2023-01-19T10:35:49;2.60;99.90
4366;DHT22;2196;47.422;9.656;2023-01-19T10:38:17;2.70;99.90
4366;DHT22;2196;47.422;9.656;2023-01-19T10:40:53;2.70;99.90
4366;DHT22;2196;47.422;9.656;2023-01-19T10:43:38;2.70;99.90
4366;DHT22;2196;47.422;9.656;2023-01-19T10:46:15;2.80;99.90
4366;DHT22;2196;47.422;9.656;2023-01-19T10:48:43;2.80;99.90
4366;DHT22;2196;47.422;9.656;2023-01-19T10:51:13;2.90;99.90
4366;DHT22;2196;47.422;9.656;2023-01-19T10:53:56;2.90;99.90
4366;DHT22;2196;47.422;9.656;2023-01-19T10:56:26;3.10;99.90
4366;DHT22;2196;47.422;9.656;2023-01-19T10:58:53;2.90;99.90
4366;DHT22;2196;47.422;9.656;2023-01-19T11:01:23;2.90;99.90
4366;DHT22;2196;47.422;9.656;2023-01-19T11:03:51;3.00;99.90
4366;DHT22;2196;47.422;9.656;2023-01-19T11:06:22;3.00;99.90
4366;DHT22;2196;47.422;9.656;2023-01-19T11:08:50;3.00;99.90
4366;DHT22;2196;47.422;9.656;2023-01-19T11:11:18;3.10;99.90
4366;DHT22;2196;47.422;9.656;2023-01-19T11:14:02;3.20;99.90
4366;DHT22;2196;47.422;9.656;2023-01-19T11:16:33;3.20;99.90
4366;DHT22;2196;47.422;9.656;2023-01-19T11:19:16;3.20;99.90
4366;DHT22;2196;47.422;9.656;2023-01-19T11:21:44;3.10;99.90
4366;DHT22;2196;47.422;9.656;2023-01-19T11:24:12;3.10;99.90
4366;DHT22;2196;47.422;9.656;2023-01-19T11:26:43;2.90;99.90
4366;DHT22;2196;47.422;9.656;2023-01-19T11:29:17;2.90;99.90
4366;DHT22;2196;47.422;9.656;2023-01-19T11:31:47;3.00;99.90
4366;DHT22;2196;47.422;9.656;2023-01-19T11:34:26;3.00;99.90
4366;DHT22;2196;47.422;9.656;2023-01-19T11:36:58;2.80;99.90
4366;DHT22;2196;47.422;9.656;2023-01-19T11:39:27;2.70;99.90
4366;DHT22;2196;47.422;9.656;2023-01-19T11:41:56;2.70;99.90
4366;DHT22;2196;47.422;9.656;2023-01-19T11:44:28;2.60;99.90
4366;DHT22;2196;47.422;9.656;2023-01-19T11:46:59;2.50;99.90
4366;DHT22;2196;47.422;9.656;2023-01-19T11:49:37;2.40;99.90
4366;DHT22;2196;47.422;9.656;2023-01-19T11:52:12;2.30;99.90
4366;DHT22;2196;47.422;9.656;2023-01-19T11:54:47;2.30;99.90
4366;DHT22;2196;47.422;9.656;2023-01-19T11:57:17;2.30;99.90
4366;DHT22;2196;47.422;9.656;2023-01-19T11:59:45;2.40;99.90
4366;DHT22;2196;47.422;9.656;2023-01-19T12:02:22;2.50;99.90
4366;DHT22;2196;47.422;9.656;2023-01-19T12:04:54;2.50;99.90
4366;DHT22;2196;47.422;9.656;2023-01-19T12:07:28;2.60;99.90
4366;DHT22;2196;47.422;9.656;2023-01-19T12:10:02;2.60;99.90
4366;DHT22;2196;47.422;9.656;2023-01-19T12:12:34;2.50;99.90
4366;DHT22;2196;47.422;9.656;2023-01-19T12:15:07;2.60;99.90
4366;DHT22;2196;47.422;9.656;2023-01-19T12:17:47;2.60;99.90
4366;DHT22;2196;47.422;9.656;2023-01-19T12:20:23;2.60;99.90
4366;DHT22;2196;47.422;9.656;2023-01-19T12:22:57;2.60;99.90
4366;DHT22;2196;47.422;9.656;2023-01-19T12:25:30;2.70;99.90
4366;DHT22;2196;47.422;9.656;2023-01-19T12:28:05;2.70;99.90
4366;DHT22;2196;47.422;9.656;2023-01-19T12:30:35;2.80;99.90
4366;DHT22;2196;47.422;9.656;2023-01-19T12:33:27;2.70;99.90
4366;DHT22;2196;47.422;9.656;2023-01-19T12:35:59;2.70;99.90
4366;DHT22;2196;47.422;9.656;2023-01-19T12:38:47;2.60;99.90
4366;DHT22;2196;47.422;9.656;2023-01-19T12:41:23;2.50;99.90
4366;DHT22;2196;47.422;9.656;2023-01-19T12:44:14;2.60;99.90
4366;DHT22;2196;47.422;9.656;2023-01-19T12:46:44;2.60;99.90
4366;DHT22;2196;47.422;9.656;2023-01-19T12:49:21;2.60;99.90
4366;DHT22;2196;47.422;9.656;2023-01-19T12:51:52;2.50;99.90
4366;DHT22;2196;47.422;9.656;2023-01-19T12:54:26;2.40;99.90
4366;DHT22;2196;47.422;9.656;2023-01-19T12:57:00;2.50;99.90
4366;DHT22;2196;47.422;9.656;2023-01-19T12:59:27;2.50;99.90
4366;DHT22;2196;47.422;9.656;2023-01-19T13:02:36;2.60;99.90
4366;DHT22;2196;47.422;9.656;2023-01-19T13:05:24;2.60;99.90
4366;DHT22;2196;47.422;9.656;2023-01-19T13:08:14;2.70;99.90
4366;DHT22;2196;47.422;9.656;2023-01-19T13:16:58;2.70;99.90
4366;DHT22;2196;47.422;9.656;2023-01-19T13:22:52;2.80;99.90
4366;DHT22;2196;47.422;9.656;2023-01-19T13:25:37;2.70;99.90
4366;DHT22;2196;47.422;9.656;2023-01-19T13:28:09;2.60;99.90
4366;DHT22;2196;47.422;9.656;2023-01-19T13:30:45;2.70;99.90
4366;DHT22;2196;47.422;9.656;2023-01-19T13:33:19;2.70;99.90
4366;DHT22;2196;47.422;9.656;2023-01-19T13:35:50;2.70;99.90
4366;DHT22;2196;47.422;9.656;2023-01-19T13:38:21;2.70;99.90
4366;DHT22;2196;47.422;9.656;2023-01-19T13:40:48;2.70;99.90
4366;DHT22;2196;47.422;9.656;2023-01-19T13:43:18;2.60;99.90
4366;DHT22;2196;47.422;9.656;2023-01-19T13:45:48;2.60;99.90
4366;DHT22;2196;47.422;9.656;2023-01-19T13:48:18;2.60;99.90
4366;DHT22;2196;47.422;9.656;2023-01-19T13:51:02;2.60;99.90
4366;DHT22;2196;47.422;9.656;2023-01-19T13:53:31;2.60;99.90
4366;DHT22;2196;47.422;9.656;2023-01-19T13:56:08;2.50;99.90
4366;DHT22;2196;47.422;9.656;2023-01-19T13:58:35;2.50;99.90
4366;DHT22;2196;47.422;9.656;2023-01-19T14:01:02;2.40;99.90
4366;DHT22;2196;47.422;9.656;2023-01-19T14:03:30;2.50;99.90
4366;DHT22;2196;47.422;9.656;2023-01-19T14:05:57;2.50;99.90
4366;DHT22;2196;47.422;9.656;2023-01-19T14:08:24;2.50;99.90
4366;DHT22;2196;47.422;9.656;2023-01-19T14:11:01;2.40;99.90
4366;DHT22;2196;47.422;9.656;2023-01-19T14:13:30;2.40;99.90
4366;DHT22;2196;47.422;9.656;2023-01-19T14:15:59;2.40;99.90
4366;DHT22;2196;47.422;9.656;2023-01-19T14:18:28;2.30;99.90
4366;DHT22;2196;47.422;9.656;2023-01-19T14:20:58;2.30;99.90
4366;DHT22;2196;47.422;9.656;2023-01-19T14:23:38;2.30;99.90
4366;DHT22;2196;47.422;9.656;2023-01-19T14:26:41;2.30;99.90
4366;DHT22;2196;47.422;9.656;2023-01-19T14:29:26;2.30;99.90
4366;DHT22;2196;47.422;9.656;2023-01-19T14:32:06;2.30;99.90
4366;DHT22;2196;47.422;9.656;2023-01-19T14:34:35;2.30;99.90
4366;DHT22;2196;47.422;9.656;2023-01-19T14:37:10;2.30;99.90
4366;DHT22;2196;47.422;9.656;2023-01-19T14:39:43;2.30;99.90
4366;DHT22;2196;47.422;9.656;2023-01-19T14:42:18;2.20;99.90
4366;DHT22;2196;47.422;9.656;2023-01-19T14:44:48;2.20;99.90
4366;DHT22;2196;47.422;9.656;2023-01-19T14:47:32;2.20;99.90
4366;DHT22;2196;47.422;9.656;2023-01-19T14:50:05;2.20;99.90
4366;DHT22;2196;47.422;9.656;2023-01-19T14:52:37;2.10;99.90
4366;DHT22;2196;47.422;9.656;2023-01-19T14:55:06;2.00;99.90
4366;DHT22;2196;47.422;9.656;2023-01-19T14:57:35;2.00;99.90
4366;DHT22;2196;47.422;9.656;2023-01-19T15:00:11;1.90;99.90
4366;DHT22;2196;47.422;9.656;2023-01-19T15:02:41;1.90;99.90
4366;DHT22;2196;47.422;9.656;2023-01-19T15:05:08;1.90;99.90
4366;DHT22;2196;47.422;9.656;2023-01-19T15:07:37;1.80;99.90
4366;DHT22;2196;47.422;9.656;2023-01-19T15:10:09;1.80;99.90
4366;DHT22;2196;47.422;9.656;2023-01-19T15:12:41;1.80;99.90
4366;DHT22;2196;47.422;9.656;2023-01-19T15:15:13;1.70;99.90
4366;DHT22;2196;47.422;9.656;2023-01-19T15:17:41;1.70;99.90
4366;DHT22;2196;47.422;9.656;2023-01-19T15:20:13;1.80;99.90
4366;DHT22;2196;47.422;9.656;2023-01-19T15:22:41;1.80;99.90
4366;DHT22;2196;47.422;9.656;2023-01-19T15:25:12;1.70;99.90
4366;DHT22;2196;47.422;9.656;2023-01-19T15:27:40;1.70;99.90
4366;DHT22;2196;47.422;9.656;2023-01-19T15:30:16;1.70;99.90
4366;DHT22;2196;47.422;9.656;2023-01-19T15:32:44;1.70;99.90
4366;DHT22;2196;47.422;9.656;2023-01-19T15:35:12;1.70;99.90
4366;DHT22;2196;47.422;9.656;2023-01-19T15:37:40;1.70;99.90
4366;DHT22;2196;47.422;9.656;2023-01-19T15:40:08;1.60;99.90
4366;DHT22;2196;47.422;9.656;2023-01-19T15:42:36;1.60;99.90
4366;DHT22;2196;47.422;9.656;2023-01-19T15:45:31;1.60;99.90
4366;DHT22;2196;47.422;9.656;2023-01-19T15:48:00;1.60;99.90
4366;DHT22;2196;47.422;9.656;2023-01-19T15:50:28;1.60;99.90
4366;DHT22;2196;47.422;9.656;2023-01-19T15:52:55;1.50;99.90
4366;DHT22;2196;47.422;9.656;2023-01-19T15:55:23;1.50;99.90
4366;DHT22;2196;47.422;9.656;2023-01-19T15:57:50;1.40;99.90
4366;DHT22;2196;47.422;9.656;2023-01-19T16:00:18;1.40;99.90
4366;DHT22;2196;47.422;9.656;2023-01-19T16:02:45;1.30;99.90
4366;DHT22;2196;47.422;9.656;2023-01-19T16:05:14;1.30;99.90
4366;DHT22;2196;47.422;9.656;2023-01-19T16:07:41;1.20;99.90
4366;DHT22;2196;47.422;9.656;2023-01-19T16:10:09;1.10;99.90
4366;DHT22;2196;47.422;9.656;2023-01-19T16:12:37;1.00;99.90
4366;DHT22;2196;47.422;9.656;2023-01-19T16:15:05;1.00;99.90
4366;DHT22;2196;47.422;9.656;2023-01-19T16:17:33;0.90;99.90
4366;DHT22;2196;47.422;9.656;2023-01-19T16:20:01;0.90;99.90
4366;DHT22;2196;47.422;9.656;2023-01-19T16:22:28;0.80;99.90
4366;DHT22;2196;47.422;9.656;2023-01-19T16:24:55;0.80;99.90
4366;DHT22;2196;47.422;9.656;2023-01-19T16:27:23;0.80;99.90
4366;DHT22;2196;47.422;9.656;2023-01-19T16:29:50;0.80;99.90
4366;DHT22;2196;47.422;9.656;2023-01-19T16:32:19;0.80;99.90
4366;DHT22;2196;47.422;9.656;2023-01-19T16:34:48;0.80;99.90
4366;DHT22;2196;47.422;9.656;2023-01-19T16:37:16;0.80;99.90
4366;DHT22;2196;47.422;9.656;2023-01-19T16:39:43;0.70;99.90
4366;DHT22;2196;47.422;9.656;2023-01-19T16:42:12;0.80;99.90
4366;DHT22;2196;47.422;9.656;2023-01-19T16:44:41;0.80;99.90